Time;durP1;ratioP1;P1;durP2;ratioP2;P2;SDS_P1;SDS_P2;PMS_P1;PMS_P2;Temp;Humidity;BMP_temperature;BMP_pressure;BME280_temperature;BME280_humidity;BME280_pressure;Samples;Min_cycle;Max_cycle;Signal;HPM_P1;HPM_P2
2022/01/11 00:01:08;;;;;;;17.10;9.05;;;-3.30;99.90;;;;;;5040646;28;20108;-96
2022/01/11 00:03:36;;;;;;;16.85;9.77;;;-3.40;99.90;;;;;;5040017;28;20033;-96
2022/01/11 00:06:18;;;;;;;17.95;8.90;;;-3.40;99.90;;;;;;5039967;28;20025;-96
2022/01/11 00:08:48;;;;;;;10.65;6.13;;;-3.30;99.90;;;;;;5040075;28;20029;-96
2022/01/11 00:11:17;;;;;;;16.55;9.70;;;-3.30;99.90;;;;;;5040583;28;20029;-95
2022/01/11 00:13:43;;;;;;;15.32;8.90;;;-3.30;99.90;;;;;;5040146;28;20471;-96
2022/01/11 00:16:11;;;;;;;14.48;8.60;;;-3.20;99.90;;;;;;5039944;28;20082;-95
2022/01/11 00:18:37;;;;;;;14.45;8.52;;;-3.30;99.90;;;;;;5040048;28;20055;-96
2022/01/11 00:21:06;;;;;;;14.48;7.82;;;-3.30;99.90;;;;;;5039714;28;20025;-95
2022/01/11 00:25:58;;;;;;;13.30;7.75;;;-3.30;99.90;;;;;;5057571;28;20112;-96
2022/01/11 00:28:26;;;;;;;16.25;8.65;;;-3.30;99.90;;;;;;5040164;28;20017;-96
2022/01/11 00:30:53;;;;;;;15.77;8.38;;;-3.40;99.90;;;;;;5039517;28;20025;-96
2022/01/11 00:33:31;;;;;;;19.42;9.15;;;-3.40;99.90;;;;;;5039675;28;20029;-96
2022/01/11 00:35:59;;;;;;;19.05;9.45;;;-3.40;99.90;;;;;;5039546;28;20060;-96
2022/01/11 00:38:34;;;;;;;15.52;8.25;;;-3.40;99.90;;;;;;5039601;28;20021;-96
2022/01/11 00:41:20;;;;;;;14.77;8.50;;;-3.40;99.90;;;;;;5039331;28;20029;-96
2022/01/11 00:43:46;;;;;;;14.18;7.05;;;-3.40;99.90;;;;;;5040803;28;20056;-96
2022/01/11 00:46:12;;;;;;;11.07;6.80;;;-3.40;99.90;;;;;;5039175;28;20017;-96
2022/01/11 00:48:40;;;;;;;11.43;5.95;;;-3.50;99.90;;;;;;5039234;28;20029;-96
2022/01/11 00:51:07;;;;;;;13.45;6.95;;;-3.60;99.90;;;;;;5038720;28;20112;-96
2022/01/11 00:53:33;;;;;;;9.90;6.28;;;-3.60;99.90;;;;;;5038974;28;20029;-96
2022/01/11 00:56:02;;;;;;;9.68;6.38;;;-3.60;99.90;;;;;;5039395;28;20078;-96
2022/01/11 00:58:28;;;;;;;11.63;7.00;;;-3.60;99.90;;;;;;5039252;28;20093;-96
2022/01/11 01:01:03;;;;;;;9.73;6.18;;;-3.60;99.90;;;;;;5039577;28;20464;-96
2022/01/11 01:03:29;;;;;;;10.52;6.03;;;-3.60;99.90;;;;;;5039122;28;20020;-96
2022/01/11 01:05:55;;;;;;;9.48;6.18;;;-3.60;99.90;;;;;;5039216;28;20024;-96
2022/01/11 01:08:22;;;;;;;8.43;5.68;;;-3.60;99.90;;;;;;5038829;28;20028;-94
2022/01/11 01:10:48;;;;;;;11.82;6.47;;;-3.50;99.90;;;;;;5038909;28;20025;-96
2022/01/11 01:13:26;;;;;;;10.73;6.10;;;-3.50;99.90;;;;;;5038749;28;20025;-95
2022/01/11 01:15:53;;;;;;;13.43;7.00;;;-3.60;99.90;;;;;;5038890;28;20033;-96
2022/01/11 01:18:29;;;;;;;10.57;5.93;;;-3.50;99.90;;;;;;5038375;28;20045;-96
2022/01/11 01:20:56;;;;;;;9.50;5.88;;;-3.50;99.90;;;;;;5038560;28;20075;-95
2022/01/11 01:23:23;;;;;;;13.40;6.57;;;-3.50;99.90;;;;;;5038585;28;20021;-95
2022/01/11 01:25:49;;;;;;;11.02;6.25;;;-3.50;99.90;;;;;;5038734;28;20021;-96
2022/01/11 01:28:17;;;;;;;11.18;6.63;;;-3.60;99.90;;;;;;5038518;28;20024;-95
2022/01/11 01:30:44;;;;;;;9.95;5.90;;;-3.50;99.90;;;;;;5038431;28;20027;-96
2022/01/11 01:33:10;;;;;;;10.65;6.35;;;-3.50;99.90;;;;;;5038462;28;20025;-96
2022/01/11 01:35:40;;;;;;;12.18;7.18;;;-3.50;99.90;;;;;;5038336;28;20017;-96
2022/01/11 01:38:07;;;;;;;;;;;-3.50;99.90;;;;;;5038776;28;20070;-96
2022/01/11 01:40:39;;;;;;;10.90;6.30;;;-3.50;99.90;;;;;;5038276;28;19917;-96
2022/01/11 01:43:08;;;;;;;11.05;6.80;;;-3.50;99.90;;;;;;5038360;28;20061;-96
2022/01/11 01:45:37;;;;;;;9.15;6.13;;;-3.50;99.90;;;;;;5038347;28;20036;-96
2022/01/11 01:48:04;;;;;;;9.93;6.13;;;-3.50;99.90;;;;;;5038087;28;20467;-95
2022/01/11 01:50:30;;;;;;;12.10;6.40;;;-3.50;99.90;;;;;;5038692;28;20469;-96
2022/01/11 01:53:07;;;;;;;12.55;6.88;;;-3.40;99.90;;;;;;5037934;28;20108;-96
2022/01/11 01:55:39;;;;;;;10.18;6.88;;;-3.40;99.90;;;;;;5038092;28;20036;-96
2022/01/11 01:58:05;;;;;;;13.13;7.85;;;-3.40;99.90;;;;;;5037954;28;20028;-96
2022/01/11 02:00:31;;;;;;;12.52;7.55;;;-3.50;99.90;;;;;;5038068;28;20060;-96
2022/01/11 02:06:20;;;;;;;12.82;7.88;;;-3.40;99.90;;;;;;5055420;28;20028;-95
2022/01/11 02:08:50;;;;;;;16.02;7.90;;;-3.40;99.90;;;;;;5037727;28;20032;-96
2022/01/11 02:11:19;;;;;;;14.88;7.53;;;-3.40;99.90;;;;;;5037907;28;20021;-96
2022/01/11 02:13:46;;;;;;;12.23;7.80;;;-3.40;99.90;;;;;;5038050;28;20033;-96
2022/01/11 02:16:13;;;;;;;11.18;6.80;;;-3.40;99.90;;;;;;5038373;28;20024;-95
2022/01/11 02:18:40;;;;;;;10.63;6.10;;;-3.40;99.90;;;;;;5037356;28;20069;-96
2022/01/11 02:21:07;;;;;;;15.02;7.05;;;-3.40;99.90;;;;;;5037494;28;20025;-96
2022/01/11 02:23:44;;;;;;;11.85;6.70;;;-3.50;99.90;;;;;;5037262;28;20028;-96
2022/01/11 02:26:13;;;;;;;11.35;6.05;;;-3.50;99.90;;;;;;5037330;28;20029;-96
2022/01/11 02:28:39;;;;;;;11.50;6.88;;;-3.50;99.90;;;;;;5037816;28;20463;-96
2022/01/11 02:31:12;;;;;;;12.30;7.03;;;-3.50;99.90;;;;;;5037990;28;20024;-96
2022/01/11 02:33:44;;;;;;;12.70;6.78;;;-3.60;99.90;;;;;;5036855;28;20040;-96
2022/01/11 02:36:20;;;;;;;12.45;7.55;;;-3.50;99.90;;;;;;5037155;28;20025;-96
2022/01/11 02:38:53;;;;;;;10.65;7.07;;;-3.60;99.90;;;;;;5037162;28;20025;-96
2022/01/11 02:41:20;;;;;;;14.13;7.35;;;-3.60;99.90;;;;;;5037123;28;20033;-95
2022/01/11 02:43:47;;;;;;;13.23;7.50;;;-3.60;99.90;;;;;;5036943;28;20032;-94
2022/01/11 02:46:33;;;;;;;15.55;6.65;;;-3.60;99.90;;;;;;5037200;28;20108;-95
2022/01/11 02:49:01;;;;;;;16.02;7.80;;;-3.60;99.90;;;;;;5036932;28;20374;-96
2022/01/11 02:51:27;;;;;;;15.48;8.38;;;-3.60;99.90;;;;;;5037130;28;20152;-96
2022/01/11 02:54:00;;;;;;;14.82;7.80;;;-3.70;99.90;;;;;;5037114;28;20115;-96
2022/01/11 02:56:29;;;;;;;12.68;6.78;;;-3.70;99.90;;;;;;5038215;28;20082;-95
2022/01/11 02:58:55;;;;;;;13.13;7.40;;;-3.70;99.90;;;;;;5036405;28;20032;-96
2022/01/11 03:01:21;;;;;;;12.50;7.50;;;-3.70;99.90;;;;;;5036847;28;20028;-96
2022/01/11 03:03:47;;;;;;;13.23;7.68;;;-3.70;99.90;;;;;;5037113;28;20028;-96
2022/01/11 03:06:17;;;;;;;16.52;8.23;;;-3.70;99.90;;;;;;5036795;28;20017;-96
2022/01/11 03:08:46;;;;;;;14.57;8.35;;;-3.70;99.90;;;;;;5036720;28;20417;-96
2022/01/11 03:11:13;;;;;;;14.80;8.25;;;-3.70;99.90;;;;;;5037650;28;20120;-96
2022/01/11 03:13:43;;;;;;;14.55;7.60;;;-3.70;99.90;;;;;;5036674;28;20025;-95
2022/01/11 03:16:10;;;;;;;11.70;8.05;;;-3.70;99.90;;;;;;5036655;28;20021;-96
2022/01/11 03:18:37;;;;;;;15.65;8.70;;;-3.60;99.90;;;;;;5036459;28;20087;-96
2022/01/11 03:21:03;;;;;;;16.83;9.48;;;-3.60;99.90;;;;;;5036898;28;20017;-95
2022/01/11 03:23:30;;;;;;;16.10;8.05;;;-3.50;99.90;;;;;;5036583;28;20025;-96
2022/01/11 03:26:02;;;;;;;16.42;8.20;;;-3.50;99.90;;;;;;5036627;28;20025;-95
2022/01/11 03:28:48;;;;;;;12.55;7.40;;;-3.50;99.90;;;;;;5036453;28;20364;-96
2022/01/11 03:31:19;;;;;;;17.27;8.00;;;-3.50;99.90;;;;;;5037197;28;20041;-96
2022/01/11 03:33:48;;;;;;;11.85;6.82;;;-3.50;99.90;;;;;;5037775;28;20467;-96
2022/01/11 03:36:14;;;;;;;11.90;6.93;;;-3.50;99.90;;;;;;5036554;28;20391;-95
2022/01/11 03:38:42;;;;;;;16.90;8.20;;;-3.50;99.90;;;;;;5036242;28;20021;-95
2022/01/11 03:41:11;;;;;;;12.73;7.55;;;-3.50;99.90;;;;;;5036446;28;20128;-96
2022/01/11 03:43:37;;;;;;;14.38;7.82;;;-3.60;99.90;;;;;;5036691;28;20025;-96
2022/01/11 03:46:04;;;;;;;14.23;7.53;;;-3.50;99.90;;;;;;5036263;28;20116;-96
2022/01/11 03:48:30;;;;;;;14.30;7.25;;;-3.50;99.90;;;;;;5036232;28;20021;-96
2022/01/11 03:50:56;;;;;;;12.30;7.15;;;-3.60;99.90;;;;;;5036295;28;20025;-95
2022/01/11 03:53:31;;;;;;;16.02;7.45;;;-3.60;99.90;;;;;;5037518;28;20063;-96
2022/01/11 03:56:10;;;;;;;12.20;7.55;;;-3.70;99.90;;;;;;5036452;28;20029;-96
2022/01/11 03:58:36;;;;;;;14.48;7.80;;;-3.60;99.90;;;;;;5036257;28;20029;-96
2022/01/11 04:01:01;;;;;;;13.25;7.50;;;-3.50;99.90;;;;;;5036382;28;20151;-95
2022/01/11 04:03:27;;;;;;;15.48;7.18;;;-3.50;99.90;;;;;;5036187;28;20112;-96
2022/01/11 04:05:54;;;;;;;12.68;7.05;;;-3.50;99.90;;;;;;5036305;28;20017;-95
2022/01/11 04:08:41;;;;;;;;;;;;;;;;;;;;;
2022/01/11 04:11:17;;;;;;;14.02;7.45;;;-3.50;99.90;;;;;;5054238;28;20378;-96
2022/01/11 04:13:46;;;;;;;12.63;6.82;;;-3.40;99.90;;;;;;5036358;28;20025;-96
2022/01/11 04:16:29;;;;;;;16.23;7.95;;;-3.40;99.90;;;;;;5037152;28;20566;-96
2022/01/11 04:18:55;;;;;;;13.18;7.18;;;-3.40;99.90;;;;;;5036320;28;20052;-96
2022/01/11 04:21:26;;;;;;;15.13;7.97;;;-3.40;99.90;;;;;;5036681;28;20021;-96
2022/01/11 04:23:53;;;;;;;15.55;7.85;;;-3.50;99.90;;;;;;5036415;28;20451;-96
2022/01/11 04:26:19;;;;;;;12.98;6.97;;;-3.50;99.90;;;;;;5036982;28;20025;-96
2022/01/11 04:28:50;;;;;;;15.35;8.80;;;-3.50;99.90;;;;;;5039702;28;20083;-96
2022/01/11 04:31:16;;;;;;;17.17;8.57;;;-3.50;99.90;;;;;;5039836;28;20029;-96
2022/01/11 04:33:47;;;;;;;17.17;8.38;;;-3.50;99.90;;;;;;5039910;28;20029;-96
2022/01/11 04:36:14;;;;;;;14.68;8.45;;;-3.50;99.90;;;;;;5039663;28;20032;-96
2022/01/11 04:38:40;;;;;;;18.38;8.85;;;-3.50;99.90;;;;;;5039715;28;20029;-96
2022/01/11 04:41:06;;;;;;;17.83;8.80;;;-3.60;99.90;;;;;;5039334;28;20033;-96
2022/01/11 04:43:41;;;;;;;18.33;9.30;;;-3.60;99.90;;;;;;5039423;28;20031;-96
2022/01/11 04:46:07;;;;;;;17.70;9.90;;;-3.60;99.90;;;;;;5039540;28;20456;-96
2022/01/11 04:48:33;;;;;;;24.08;10.95;;;-3.60;99.90;;;;;;5039302;28;20021;-96
2022/01/11 04:51:37;;;;;;;;;;;;;;;;;;;;;
2022/01/11 04:53:58;;;;;;;21.92;11.20;;;-3.60;99.90;;;;;;5055418;28;20086;-96
2022/01/11 04:56:30;;;;;;;18.48;9.93;;;-3.50;99.90;;;;;;5040050;28;20120;-96
2022/01/11 04:58:57;;;;;;;21.08;10.13;;;-3.60;99.90;;;;;;5038946;28;20029;-96
2022/01/11 05:01:22;;;;;;;19.90;10.15;;;-3.60;99.90;;;;;;5039046;28;20025;-96
2022/01/11 05:03:49;;;;;;;18.35;9.45;;;-3.50;99.90;;;;;;5038939;28;20459;-96
2022/01/11 05:06:21;;;;;;;16.23;9.13;;;-3.60;99.90;;;;;;5039047;28;20470;-96
2022/01/11 05:08:56;;;;;;;19.42;10.13;;;-3.50;99.90;;;;;;5038962;28;20037;-96
2022/01/11 05:11:22;;;;;;;23.10;9.77;;;-3.60;99.90;;;;;;5039880;28;20116;-96
2022/01/11 05:13:49;;;;;;;14.77;8.45;;;;;;;;;;5038913;28;20052;-96
2022/01/11 05:16:15;;;;;;;18.00;9.60;;;-3.60;99.90;;;;;;5038921;28;20033;-95
2022/01/11 05:18:41;;;;;;;21.35;9.75;;;-3.70;99.90;;;;;;5038534;28;20052;-96
2022/01/11 05:21:07;;;;;;;19.90;9.50;;;-3.60;99.90;;;;;;5038610;28;20017;-96
2022/01/11 05:23:34;;;;;;;18.75;8.88;;;-3.60;99.90;;;;;;5038942;28;20021;-96
2022/01/11 05:26:06;;;;;;;19.50;9.10;;;-3.60;99.90;;;;;;5038953;28;20017;-96
2022/01/11 05:28:34;;;;;;;20.27;9.48;;;-3.70;99.90;;;;;;5038750;28;20112;-95
2022/01/11 05:31:01;;;;;;;18.55;10.00;;;-3.70;99.90;;;;;;5038359;28;20033;-96
2022/01/11 05:33:27;;;;;;;18.52;9.40;;;-3.60;99.90;;;;;;5038511;28;20028;-96
2022/01/11 05:35:52;;;;;;;20.35;9.90;;;-3.60;99.90;;;;;;5038439;28;20021;-96
2022/01/11 05:38:18;;;;;;;22.98;9.65;;;-3.60;99.90;;;;;;5038073;28;20115;-96
2022/01/11 05:40:44;;;;;;;19.08;9.73;;;-3.70;99.90;;;;;;5038434;28;20051;-96
2022/01/11 05:43:12;;;;;;;19.83;10.43;;;-3.70;99.90;;;;;;5038927;28;20025;-96
2022/01/11 05:45:38;;;;;;;26.30;11.27;;;-3.60;99.90;;;;;;5038386;28;20075;-96
2022/01/11 05:48:04;;;;;;;19.92;10.55;;;-3.60;99.90;;;;;;5038860;28;20025;-96
2022/01/11 05:50:31;;;;;;;21.02;10.38;;;-3.60;99.90;;;;;;5038271;28;20056;-96
2022/01/11 05:53:06;;;;;;;23.90;10.60;;;-3.70;99.90;;;;;;5038652;28;20033;-95
2022/01/11 05:55:32;;;;;;;18.58;10.38;;;-3.70;99.90;;;;;;5039592;28;20086;-95
2022/01/11 05:57:57;;;;;;;18.23;9.57;;;-3.60;99.90;;;;;;5038040;28;20029;-96
2022/01/11 06:00:23;;;;;;;20.42;10.07;;;-3.60;99.90;;;;;;5038397;28;20123;-96
2022/01/11 06:02:54;;;;;;;18.63;9.50;;;-3.60;99.90;;;;;;5051146;28;20033;-96
2022/01/11 06:05:20;;;;;;;15.90;8.40;;;-3.60;99.90;;;;;;5038730;28;20025;-94
2022/01/11 06:07:46;;;;;;;18.50;9.00;;;-3.60;99.90;;;;;;5040224;28;20463;-94
2022/01/11 14:47:18;;;;;;;16.73;7.65;;;-3.20;99.90;;;;;;5082684;27;20714;-91
2022/01/11 14:49:43;;;;;;;16.52;8.23;;;-3.20;99.90;;;;;;5070959;28;20032;-91
2022/01/11 14:52:17;;;;;;;14.25;7.65;;;-3.20;99.90;;;;;;5070767;28;20119;-93
2022/01/11 14:54:53;;;;;;;16.42;8.18;;;-3.10;99.90;;;;;;5070513;28;20032;-91
2022/01/11 14:57:22;;;;;;;16.38;8.88;;;-3.20;99.90;;;;;;5069737;28;20039;-91
2022/01/11 14:59:48;;;;;;;15.43;8.13;;;-3.10;99.90;;;;;;5069326;28;20075;-93
2022/01/11 15:02:25;;;;;;;18.35;10.13;;;-3.20;99.90;;;;;;5070247;28;20028;-92
2022/01/11 15:04:51;;;;;;;21.73;11.13;;;-3.20;99.90;;;;;;5068534;28;20075;-90
2022/01/11 15:07:19;;;;;;;25.92;11.75;;;-3.10;99.90;;;;;;5069815;28;20379;-92
2022/01/11 15:09:46;;;;;;;17.70;9.38;;;-3.00;99.90;;;;;;5069717;28;20028;-93
2022/01/11 15:12:19;;;;;;;27.85;11.50;;;-3.10;99.90;;;;;;5069785;28;20096;-91
2022/01/11 15:14:47;;;;;;;21.52;10.13;;;-3.00;99.90;;;;;;5066806;28;20171;-90
2022/01/11 15:17:14;;;;;;;13.25;7.05;;;-3.00;99.90;;;;;;5070092;28;20021;-96
2022/01/11 15:19:40;;;;;;;11.35;7.10;;;-3.00;99.90;;;;;;5071175;28;20036;-95
2022/01/11 15:22:07;;;;;;;13.18;6.65;;;-3.00;99.90;;;;;;5070200;28;20086;-93
2022/01/11 15:24:34;;;;;;;20.67;7.32;;;-3.00;99.90;;;;;;5070315;28;20020;-93
2022/01/11 15:27:06;;;;;;;13.32;7.55;;;-3.00;99.90;;;;;;5069662;28;20493;-93
2022/01/11 15:29:32;;;;;;;12.30;6.57;;;-3.00;99.90;;;;;;5069863;28;20013;-94
2022/01/11 15:32:00;;;;;;;11.40;6.65;;;-2.90;99.90;;;;;;5071255;28;20031;-96
2022/01/11 15:34:26;;;;;;;12.75;7.95;;;-3.00;99.90;;;;;;5069962;28;20025;-94
2022/01/11 15:36:53;;;;;;;13.85;7.40;;;-3.00;99.90;;;;;;5069676;28;20505;-93
2022/01/11 15:39:20;;;;;;;15.43;7.07;;;-2.90;99.90;;;;;;5069534;28;20502;-94
2022/01/11 15:41:46;;;;;;;13.85;7.75;;;-2.90;99.90;;;;;;5069376;28;20055;-94
2022/01/11 15:44:13;;;;;;;9.82;6.03;;;-2.90;99.90;;;;;;5069390;28;20029;-94
2022/01/11 15:46:40;;;;;;;11.07;6.07;;;-2.90;99.90;;;;;;5063725;28;20041;-94
2022/01/11 15:49:10;;;;;;;10.32;6.53;;;-2.90;99.90;;;;;;5069564;28;20029;-93
2022/01/11 15:51:36;;;;;;;11.02;6.88;;;-2.80;99.90;;;;;;5069925;28;20070;-93
2022/01/11 15:54:05;;;;;;;11.95;6.80;;;-2.90;99.90;;;;;;5069699;28;20020;-95
2022/01/11 15:56:31;;;;;;;13.00;6.57;;;-2.90;99.90;;;;;;5067752;28;20024;-94
2022/01/11 15:58:59;;;;;;;12.98;7.45;;;-2.90;99.90;;;;;;5056141;28;20025;-93
2022/01/11 16:01:25;;;;;;;15.13;7.32;;;-2.90;99.90;;;;;;5055773;28;20057;-95
2022/01/11 16:03:51;;;;;;;15.77;7.63;;;-2.90;99.90;;;;;;5055735;28;20021;-94
2022/01/11 16:06:17;;;;;;;14.25;8.27;;;-2.90;99.90;;;;;;5055636;28;20417;-94
2022/01/11 16:08:43;;;;;;;15.13;7.45;;;-2.90;99.90;;;;;;5055719;28;20021;-95
2022/01/11 16:11:09;;;;;;;15.20;7.63;;;-2.90;99.90;;;;;;5055767;28;20079;-95
2022/01/11 16:13:35;;;;;;;16.23;7.28;;;-2.80;99.90;;;;;;5055982;28;20025;-94
2022/01/11 16:16:01;;;;;;;12.27;6.68;;;-2.80;99.90;;;;;;5055677;28;20368;-94
2022/01/11 16:18:27;;;;;;;12.40;6.88;;;-2.80;99.90;;;;;;5056024;28;20132;-93
2022/01/11 16:20:53;;;;;;;14.07;6.75;;;-2.80;99.90;;;;;;5055828;28;20509;-93
2022/01/11 16:23:19;;;;;;;11.70;6.68;;;-2.80;99.90;;;;;;5055568;28;20044;-94
2022/01/11 16:25:45;;;;;;;13.60;7.43;;;-2.80;99.90;;;;;;5055792;28;20444;-93
2022/01/11 16:28:11;;;;;;;14.45;7.70;;;-2.80;99.90;;;;;;5055637;28;20108;-93
2022/01/11 16:30:39;;;;;;;16.52;8.85;;;-2.80;99.90;;;;;;5055258;28;20044;-94
2022/01/11 16:33:08;;;;;;;12.10;7.32;;;-2.80;99.90;;;;;;5039303;28;20029;-94
2022/01/11 16:35:38;;;;;;;21.85;9.98;;;-2.80;99.90;;;;;;5055410;28;20032;-94
2022/01/11 16:38:05;;;;;;;19.88;8.73;;;-2.80;99.90;;;;;;5042844;28;20029;-95
2022/01/11 16:43:05;;;;;;;29.95;12.15;;;-2.80;99.90;;;;;;5055830;28;20029;-96
2022/01/11 16:45:32;;;;;;;23.90;10.95;;;-2.80;99.90;;;;;;5056915;28;20049;-95
2022/01/11 16:47:59;;;;;;;29.08;11.65;;;-2.80;99.90;;;;;;5055223;28;20052;-93
2022/01/11 16:50:25;;;;;;;26.92;11.20;;;-2.90;99.90;;;;;;5036481;28;20095;-93
2022/01/11 16:52:53;;;;;;;19.70;10.00;;;-2.90;99.90;;;;;;5035553;28;20024;-94
2022/01/11 16:55:20;;;;;;;21.65;9.43;;;-3.00;99.90;;;;;;5036789;28;20025;-96
2022/01/11 16:57:46;;;;;;;19.17;9.13;;;-3.00;99.90;;;;;;5035121;28;20021;-96
2022/01/11 17:00:16;;;;;;;18.77;8.77;;;-3.10;99.90;;;;;;5036342;28;20079;-96
2022/01/11 17:02:41;;;;;;;15.25;8.43;;;-3.10;99.90;;;;;;5047392;28;20470;-94
2022/01/11 17:05:08;;;;;;;15.60;8.27;;;-3.10;99.90;;;;;;5054702;28;20036;-93
2022/01/11 17:07:34;;;;;;;16.73;8.05;;;-3.10;99.90;;;;;;5053779;28;20021;-95
2022/01/11 17:10:09;;;;;;;15.85;7.93;;;-3.10;99.90;;;;;;5058798;28;20021;-96
2022/01/11 17:12:35;;;;;;;21.13;8.90;;;-3.10;99.90;;;;;;5059377;28;20028;-94
2022/01/11 17:15:10;;;;;;;21.42;8.13;;;-3.10;99.90;;;;;;5056094;28;20029;-96
2022/01/11 17:17:35;;;;;;;16.17;7.85;;;-3.20;99.90;;;;;;5057129;28;20094;-93
2022/01/11 17:20:04;;;;;;;17.35;7.95;;;-3.20;99.90;;;;;;5055634;28;20025;-96
2022/01/11 17:22:29;;;;;;;19.23;8.30;;;-3.30;99.90;;;;;;5056127;28;20025;-95
2022/01/11 17:24:56;;;;;;;17.60;8.40;;;-3.30;99.90;;;;;;5058761;28;20036;-96
2022/01/11 17:27:23;;;;;;;15.98;8.30;;;-3.30;99.90;;;;;;5059264;28;20517;-95
2022/01/11 17:29:49;;;;;;;17.60;7.95;;;-3.30;99.90;;;;;;5054947;28;20049;-96
2022/01/11 17:32:15;;;;;;;13.88;7.22;;;-3.30;99.90;;;;;;5054902;28;20017;-95
2022/01/11 17:34:40;;;;;;;20.33;10.13;;;-3.40;99.90;;;;;;5055443;28;20021;-94
2022/01/11 17:37:12;;;;;;;16.63;9.13;;;-3.40;99.90;;;;;;5057850;28;20035;-96
2022/01/11 17:39:37;;;;;;;20.73;9.75;;;-3.50;99.90;;;;;;5054971;28;20025;-95
2022/01/11 17:42:45;;;;;;;15.60;7.15;;;-3.50;99.90;;;;;;5055424;28;20031;-96
2022/01/11 17:45:12;;;;;;;17.02;8.10;;;-3.50;99.90;;;;;;5007227;28;20091;-96
2022/01/11 17:47:38;;;;;;;14.55;7.80;;;-3.50;99.90;;;;;;5054044;28;20352;-94
2022/01/11 17:50:05;;;;;;;17.92;7.50;;;-3.50;99.90;;;;;;5056158;28;20078;-96
2022/01/11 17:52:31;;;;;;;14.77;6.75;;;-3.40;99.90;;;;;;5055036;28;20028;-96
2022/01/11 17:54:57;;;;;;;24.13;9.63;;;-3.40;99.90;;;;;;5053798;28;20033;-96
2022/01/11 17:57:25;;;;;;;18.77;8.18;;;-3.40;99.90;;;;;;5053917;28;20029;-96
2022/01/11 17:59:51;;;;;;;59.33;18.95;;;-3.40;99.90;;;;;;5054322;28;20017;-96
2022/01/11 18:02:27;;;;;;;37.28;15.00;;;-3.40;99.90;;;;;;5054596;28;20021;-96
2022/01/11 18:04:53;;;;;;;28.70;10.73;;;-3.40;99.90;;;;;;5055220;28;20040;-95
2022/01/11 18:11:03;;;;;;;23.30;12.32;;;-3.40;99.90;;;;;;4996532;28;20034;-96
2022/01/11 18:13:28;;;;;;;18.27;9.52;;;-3.40;99.90;;;;;;5007790;28;20040;-96
2022/01/11 18:16:06;;;;;;;26.33;12.02;;;-3.40;99.90;;;;;;5056541;28;20033;-96
2022/01/11 18:21:35;;;;;;;15.40;7.82;;;-3.40;99.90;;;;;;5056976;28;20179;-96
2022/01/11 18:24:03;;;;;;;16.98;6.95;;;-3.40;99.90;;;;;;5055019;28;20493;-95
2022/01/11 18:26:31;;;;;;;16.63;8.10;;;-3.50;99.90;;;;;;5053289;28;20021;-93
2022/01/11 18:28:56;;;;;;;14.52;7.15;;;-3.50;99.90;;;;;;5054313;28;20025;-94
2022/01/11 18:31:24;;;;;;;13.73;7.03;;;-3.60;99.90;;;;;;5054788;28;20044;-95
2022/01/11 18:33:52;;;;;;;17.88;8.68;;;-3.60;99.90;;;;;;5059000;28;20076;-96
2022/01/11 18:36:18;;;;;;;21.52;11.13;;;-3.70;99.90;;;;;;5056058;28;20044;-94
2022/01/11 18:38:44;;;;;;;19.77;9.82;;;-3.80;99.90;;;;;;5053652;28;20025;-94
2022/01/11 18:41:09;;;;;;;27.08;12.65;;;-3.70;99.90;;;;;;5054518;28;20029;-95
2022/01/11 18:43:56;;;;;;;37.00;14.13;;;-3.70;99.90;;;;;;5053865;28;20470;-96
2022/01/11 18:46:21;;;;;;;14.77;8.20;;;-3.70;99.90;;;;;;5052588;28;20041;-94
2022/01/11 18:48:47;;;;;;;11.55;6.40;;;-3.80;99.90;;;;;;5054639;28;20025;-92
2022/01/11 18:51:13;;;;;;;14.00;7.38;;;-3.80;99.90;;;;;;5053107;28;20025;-94
2022/01/11 18:53:39;;;;;;;11.50;6.40;;;-3.80;99.90;;;;;;5055385;28;20035;-94
2022/01/11 18:56:05;;;;;;;11.05;6.68;;;-3.80;99.90;;;;;;5054391;28;20029;-92
2022/01/11 18:58:30;;;;;;;10.57;5.93;;;-3.80;99.90;;;;;;5048425;28;20026;-95
2022/01/11 19:00:59;;;;;;;8.98;5.80;;;-3.80;99.90;;;;;;5044031;28;20099;-95
2022/01/11 19:03:25;;;;;;;13.10;6.43;;;-3.80;99.90;;;;;;5054364;28;20033;-96
2022/01/11 19:05:54;;;;;;;11.60;5.90;;;-3.80;99.90;;;;;;5055250;28;20078;-94
2022/01/11 19:08:19;;;;;;;15.40;6.68;;;-3.90;99.90;;;;;;5053706;28;20025;-94
2022/01/11 19:10:45;;;;;;;11.32;5.60;;;-3.90;99.90;;;;;;5053661;28;20032;-95
2022/01/11 19:13:24;;;;;;;11.93;5.90;;;-3.90;99.90;;;;;;5054459;28;20143;-96
2022/01/11 19:15:52;;;;;;;11.00;5.63;;;-3.90;99.90;;;;;;5053913;28;20021;-96
2022/01/11 19:18:18;;;;;;;10.13;5.22;;;-3.90;99.90;;;;;;5053034;28;20029;-93
2022/01/11 19:20:49;;;;;;;13.20;6.22;;;-3.90;99.90;;;;;;5053812;28;20025;-95
2022/01/11 19:23:15;;;;;;;12.45;6.57;;;-3.90;99.90;;;;;;5052693;28;20543;-93
2022/01/11 19:25:41;;;;;;;15.07;6.28;;;-3.90;99.90;;;;;;5052934;28;20116;-94
2022/01/11 19:28:06;;;;;;;9.35;5.47;;;-4.00;99.90;;;;;;5052673;28;20018;-93
2022/01/11 19:30:32;;;;;;;12.30;5.68;;;-4.00;99.90;;;;;;5052547;28;20116;-95
2022/01/11 19:32:59;;;;;;;12.38;5.78;;;-4.00;99.90;;;;;;5055590;28;20546;-94
2022/01/11 19:35:24;;;;;;;10.75;5.65;;;-4.10;99.90;;;;;;5057448;28;20044;-94
2022/01/11 19:37:51;;;;;;;10.70;5.70;;;-4.10;99.90;;;;;;5056630;28;20463;-94
2022/01/11 19:40:20;;;;;;;13.80;5.93;;;-4.10;99.90;;;;;;5056387;28;20029;-93
2022/01/11 19:42:46;;;;;;;9.60;5.80;;;-4.20;99.90;;;;;;5056609;28;20029;-92
2022/01/11 19:45:12;;;;;;;12.45;6.00;;;-4.20;99.90;;;;;;5055951;28;20138;-92
2022/01/11 19:47:42;;;;;;;10.50;5.72;;;-4.10;99.90;;;;;;5056605;28;20020;-93
2022/01/11 19:50:10;;;;;;;10.10;5.30;;;-4.20;99.90;;;;;;5056632;28;20024;-94
2022/01/11 19:52:39;;;;;;;14.63;6.65;;;-4.20;99.90;;;;;;5056254;28;20021;-94
2022/01/11 19:55:06;;;;;;;13.02;6.97;;;-4.20;99.90;;;;;;5056639;28;20052;-96
2022/01/11 19:57:32;;;;;;;24.80;10.43;;;-4.20;99.90;;;;;;5055973;28;20021;-94
2022/01/11 19:59:59;;;;;;;58.25;16.80;;;-4.20;99.90;;;;;;5056204;28;20104;-94
2022/01/11 20:02:25;;;;;;;19.77;9.25;;;-4.20;99.90;;;;;;5055961;28;20021;-93
2022/01/11 20:04:51;;;;;;;29.75;11.65;;;-4.20;99.90;;;;;;5056025;28;20075;-93
2022/01/11 20:07:18;;;;;;;15.75;7.10;;;-4.20;99.90;;;;;;5055974;28;20422;-93
2022/01/11 20:09:44;;;;;;;14.07;6.10;;;-4.20;99.90;;;;;;5056372;28;20028;-92
2022/01/11 20:12:10;;;;;;;14.07;6.57;;;-4.30;99.90;;;;;;5056187;28;20119;-93
2022/01/11 20:14:36;;;;;;;17.95;6.40;;;-4.40;99.90;;;;;;5055896;28;20025;-92
2022/01/11 20:17:02;;;;;;;10.55;6.25;;;-4.40;99.90;;;;;;5055663;28;20036;-93
2022/01/11 20:19:28;;;;;;;11.90;6.07;;;-4.40;99.90;;;;;;5055777;28;20021;-93
2022/01/11 20:27:14;;;;;;;16.40;6.93;;;-4.50;99.90;;;;;;5056718;28;20079;-93
2022/01/11 20:29:47;;;;;;;10.68;5.78;;;-4.50;99.90;;;;;;5055758;28;20020;-93
2022/01/11 20:32:14;;;;;;;11.30;5.03;;;-4.50;99.90;;;;;;5055593;28;20032;-91
2022/01/11 20:34:42;;;;;;;9.75;5.43;;;-4.50;99.90;;;;;;5056012;28;20021;-92
2022/01/11 20:37:08;;;;;;;13.45;5.88;;;-4.50;99.90;;;;;;5055318;28;20025;-92
2022/01/11 20:39:39;;;;;;;8.90;4.93;;;-4.50;99.90;;;;;;5055664;28;20490;-93
2022/01/11 20:42:08;;;;;;;9.90;5.35;;;-4.60;99.90;;;;;;5055779;28;20044;-92
2022/01/11 20:44:35;;;;;;;12.25;6.75;;;-4.60;99.90;;;;;;5055468;28;20020;-93
2022/01/11 20:47:01;;;;;;;10.70;5.25;;;-4.60;99.90;;;;;;5055355;28;20049;-92
2022/01/11 20:49:28;;;;;;;10.18;5.22;;;-4.60;99.90;;;;;;5055194;28;20024;-91
2022/01/11 20:54:33;;;;;;;12.80;5.05;;;-4.60;99.90;;;;;;5056429;28;20111;-92
2022/01/11 20:57:04;;;;;;;8.45;5.28;;;-4.60;99.90;;;;;;5055112;28;20078;-91
2022/01/11 20:59:34;;;;;;;10.60;5.50;;;-4.70;99.90;;;;;;5055222;28;20024;-91
2022/01/11 21:02:04;;;;;;;9.90;5.63;;;-3.10;99.90;;;;;;5055390;28;20032;-92
2022/01/11 21:04:30;;;;;;;8.95;4.55;;;-4.70;99.90;;;;;;5054541;28;20033;-92
2022/01/11 21:06:55;;;;;;;14.30;5.75;;;-4.70;99.90;;;;;;5054588;28;20033;-91
2022/01/11 21:09:21;;;;;;;12.55;5.50;;;-4.60;99.90;;;;;;5054544;28;20021;-92
2022/01/11 21:11:47;;;;;;;10.95;5.43;;;-4.60;99.90;;;;;;5063966;28;20470;-92
2022/01/11 21:14:15;;;;;;;9.52;5.53;;;-4.70;99.90;;;;;;5071330;28;20032;-92
2022/01/11 21:22:07;;;;;;;7.80;4.63;;;-4.80;99.90;;;;;;5055963;28;20124;-91
2022/01/11 21:24:33;;;;;;;10.07;5.25;;;-4.80;99.90;;;;;;5054726;28;20029;-92
2022/01/11 21:27:00;;;;;;;9.65;5.22;;;-4.90;99.90;;;;;;5054192;28;20083;-92
2022/01/11 21:29:26;;;;;;;22.08;8.98;;;-4.80;99.90;;;;;;5054635;28;20047;-93
2022/01/11 21:31:53;;;;;;;20.00;8.05;;;-4.90;99.90;;;;;;5063474;28;20020;-92
2022/01/11 21:34:20;;;;;;;19.17;8.07;;;-4.90;99.90;;;;;;5058467;28;20059;-92
2022/01/11 21:36:46;;;;;;;17.15;8.18;;;-5.00;99.90;;;;;;5054325;28;20033;-91
2022/01/11 21:39:14;;;;;;;18.80;7.70;;;-5.00;99.90;;;;;;5054635;28;20025;-91
2022/01/11 21:41:41;;;;;;;15.90;6.22;;;-5.10;99.90;;;;;;5054268;28;20079;-91
2022/01/11 21:44:12;;;;;;;9.55;5.15;;;-5.10;99.90;;;;;;5054299;28;20112;-89
2022/01/11 21:46:38;;;;;;;11.40;5.97;;;-5.20;99.90;;;;;;5053883;28;20506;-92
2022/01/11 21:49:04;;;;;;;20.17;7.20;;;-5.20;99.90;;;;;;5053960;28;20021;-91
2022/01/11 21:51:30;;;;;;;9.75;5.38;;;-5.20;99.90;;;;;;5054092;28;20024;-92